Aérodrome :
LOGIN :

S'inscrire | Disclaimer

   EN    FR    IT 

 










Légende :    VFR   VFR Marginal   IFR   IFR Intensif   IFR Très Intensif
Visi : 
Plafond : 
>= 8 km
>= 3000ft
5 à 8 km
1000 à 3000 ft
1500m à 5 km
500 à 1000 ft
800 à 1500m
200 à 500 ft
< 800m
< 200 ft
Symboles :   Orages  Brouillard  Fortes neiges  Fortes précipitations  Vent > 20 kt
SIGMETs :   Divers  Orages  Givrage  Turbulence  Onde Orograph.  Cendres Volcan.






- Altitude de l'aérodrome : 19 ft
- Code IATA : LCY


EGLC - London City

DERNIER METAR :
  • 300450Z AUTO 35004KT 310V020 9999 NCD 03/M00 Q1036

METARs EXPIRÉS :
  • 300420Z AUTO 35005KT 320V030 9999 NCD 03/M00 Q1037
  • 300350Z AUTO 36006KT 320V040 9999 NCD 04/M00 Q1037
  • 300320Z AUTO 36006KT 9999 NCD 04/M00 Q1037
  • 300250Z AUTO 35006KT 310V030 9999 NCD 04/M00 Q1037
  • 300220Z AUTO 36005KT 9999 NCD 04/M01 Q1038

Prévision TAF périmée.
ATIS : +44 20 7646 0224



MET'MAP, la Météo Aéronautique d'un coup d'oeil ! - Copyright ORBIFLY Décembre 2007 - Disclaimer

ORBIFLY MET'MAP TEAM :

Programmation & Développement : Alexandra Zaïnal
Sur une idée originale de : Baudouin d'Aumeries
Assistance à la programmation : Marc-Olivier Méhu
Soutien technique & logistique : Manuel Goepfert

Contact : metmap@orbifly.com




SOURCES & CREDITS :

   NOAA